createdAt,value
2019-03-28T00:02:14.031Z,52.54
2019-03-28T00:04:40.885Z,53.02
2019-03-28T00:07:08.052Z,53.00
2019-03-28T00:09:34.626Z,53.28
2019-03-28T00:12:01.255Z,53.50
2019-03-28T00:14:27.962Z,53.45
2019-03-28T00:16:54.595Z,53.16
2019-03-28T00:19:21.483Z,52.90
2019-03-28T00:21:51.841Z,53.51
2019-03-28T00:24:22.277Z,53.80
2019-03-28T00:26:50.620Z,54.29
2019-03-28T00:29:20.648Z,54.48
2019-03-28T00:31:48.995Z,54.59
2019-03-28T00:34:17.896Z,54.71
2019-03-28T00:36:44.654Z,54.46
2019-03-28T00:39:11.239Z,54.29
2019-03-28T00:41:40.406Z,54.03
2019-03-28T00:44:10.946Z,53.80
2019-03-28T00:49:25.647Z,53.21
2019-03-28T00:51:53.545Z,53.05
2019-03-28T00:54:23.376Z,53.22
2019-03-28T00:56:54.701Z,53.46
2019-03-28T00:59:22.387Z,53.56
2019-03-28T01:01:53.130Z,53.15
2019-03-28T01:04:24.161Z,53.02
2019-03-28T01:06:51.765Z,53.38
2019-03-28T01:09:22.625Z,53.23
2019-03-28T01:11:50.630Z,53.94
2019-03-28T01:14:22.549Z,54.38
2019-03-28T01:16:53.223Z,54.50
2019-03-28T01:19:38.710Z,54.91
2019-03-28T01:22:06.380Z,55.12
2019-03-28T01:24:41.388Z,55.28
2019-03-28T01:27:09.875Z,55.54
2019-03-28T01:29:40.365Z,55.20
2019-03-28T01:32:10.126Z,55.40
2019-03-28T01:34:41.932Z,55.96
2019-03-28T01:37:13.012Z,55.44
2019-03-28T01:42:29.372Z,54.74
2019-03-28T01:44:57.982Z,54.73
2019-03-28T01:47:28.158Z,54.77
2019-03-28T01:55:28.797Z,54.48
2019-03-28T01:57:56.346Z,54.56
2019-03-28T02:00:23.294Z,54.61
2019-03-28T02:02:49.994Z,54.76
2019-03-28T02:05:17.151Z,54.59
2019-03-28T02:07:43.726Z,54.34
2019-03-28T02:10:10.398Z,54.45
2019-03-28T02:12:37.297Z,54.39
2019-03-28T02:15:04.456Z,54.70
2019-03-28T02:17:31.331Z,54.72
2019-03-28T02:20:14.356Z,54.39
2019-03-28T02:22:45.402Z,54.57
2019-03-28T02:25:17.271Z,54.31
2019-03-28T02:27:44.427Z,54.58
2019-03-28T02:30:16.283Z,55.41
2019-03-28T02:32:45.733Z,55.86
2019-03-28T02:35:18.880Z,55.97
2019-03-28T02:37:48.209Z,55.77
2019-03-28T02:40:33.650Z,55.32
2019-03-28T02:43:06.299Z,54.79
2019-03-28T02:45:38.964Z,55.31
2019-03-28T02:48:07.797Z,55.35
2019-03-28T02:50:38.027Z,55.76
2019-03-28T02:53:06.721Z,56.17
2019-03-28T02:55:38.054Z,56.83
2019-03-28T02:58:06.951Z,56.55
2019-03-28T03:00:40.137Z,56.29
2019-03-28T03:03:18.778Z,56.22
2019-03-28T03:05:48.323Z,56.33
2019-03-28T03:08:17.670Z,56.93
2019-03-28T03:10:49.211Z,56.40
2019-03-28T03:13:17.879Z,56.69
2019-03-28T03:15:48.833Z,57.56
2019-03-28T03:18:15.522Z,57.31
2019-03-28T03:20:46.272Z,56.67
2019-03-28T03:23:16.816Z,56.47
2019-03-28T03:25:44.438Z,56.56
2019-03-28T03:28:14.701Z,55.88
2019-03-28T03:30:44.409Z,55.26
2019-03-28T03:33:12.548Z,55.36
2019-03-28T03:35:41.966Z,55.25
2019-03-28T03:38:11.631Z,55.29
2019-03-28T03:43:24.843Z,55.62
2019-03-28T03:45:56.064Z,56.52
2019-03-28T03:48:27.194Z,56.56
2019-03-28T03:50:54.953Z,56.06
2019-03-28T03:53:22.619Z,55.96
2019-03-28T03:55:51.753Z,55.63
2019-03-28T03:58:21.327Z,55.64
2019-03-28T04:00:52.369Z,55.84
2019-03-28T04:03:19.528Z,56.06
2019-03-28T04:05:47.887Z,55.64
2019-03-28T04:08:15.782Z,55.92
2019-03-28T04:10:46.415Z,56.03
2019-03-28T04:13:17.296Z,55.71
2019-03-28T04:15:58.269Z,55.44
2019-03-28T04:18:30.955Z,55.64
2019-03-28T04:20:57.333Z,56.06
2019-03-28T04:23:25.239Z,56.13
2019-03-28T04:25:52.138Z,55.92
2019-03-28T04:28:30.717Z,55.79
2019-03-28T04:30:47.121Z,55.76
2019-03-28T04:33:13.874Z,55.75
2019-03-28T04:35:40.914Z,55.68
2019-03-28T04:38:07.827Z,55.87
2019-03-28T04:40:34.770Z,55.84
2019-03-28T04:43:01.661Z,55.88
2019-03-28T04:45:28.328Z,55.81
2019-03-28T04:47:55.185Z,55.48
2019-03-28T04:50:21.854Z,54.91
2019-03-28T04:52:53.012Z,54.88
2019-03-28T04:55:20.042Z,54.76
2019-03-28T04:57:46.634Z,54.17
2019-03-28T05:00:13.243Z,54.66
2019-03-28T05:02:39.929Z,55.28
2019-03-28T05:05:09.799Z,55.83
2019-03-28T05:07:36.484Z,55.67
2019-03-28T05:10:03.168Z,55.96
2019-03-28T05:12:30.227Z,55.90
2019-03-28T05:14:56.801Z,55.54
2019-03-28T05:17:23.408Z,55.78
2019-03-28T05:20:07.782Z,55.87
2019-03-28T05:22:33.785Z,56.26
2019-03-28T05:25:00.733Z,55.88
2019-03-28T05:27:28.813Z,55.39
2019-03-28T05:29:55.573Z,55.20
2019-03-28T05:32:22.314Z,55.00
2019-03-28T05:34:49.215Z,54.92
2019-03-28T05:37:15.831Z,55.31
2019-03-28T05:39:42.980Z,55.00
2019-03-28T05:42:10.299Z,54.81
2019-03-28T05:44:36.908Z,54.85
2019-03-28T05:47:03.775Z,54.85
2019-03-28T05:49:30.368Z,54.89
2019-03-28T05:51:57.293Z,54.78
2019-03-28T05:54:23.950Z,54.46
2019-03-28T05:56:50.578Z,54.52
2019-03-28T05:59:17.244Z,54.60
2019-03-28T06:01:43.851Z,54.81
2019-03-28T06:04:10.815Z,55.13
2019-03-28T06:06:37.428Z,55.02
2019-03-28T06:09:04.182Z,55.66
2019-03-28T06:11:30.854Z,55.26
2019-03-28T06:13:57.939Z,54.69
2019-03-28T06:16:24.909Z,54.81
2019-03-28T06:18:51.859Z,54.80
2019-03-28T06:21:30.522Z,54.29
2019-03-28T06:23:49.912Z,53.93
2019-03-28T06:26:23.498Z,53.27
2019-03-28T06:28:50.358Z,53.41
2019-03-28T06:31:19.251Z,53.27
2019-03-28T06:33:46.772Z,53.12
2019-03-28T06:36:14.575Z,52.63
2019-03-28T06:38:44.930Z,51.95
2019-03-28T06:41:13.391Z,51.57
2019-03-28T06:43:44.509Z,51.25
2019-03-28T06:46:15.750Z,51.25
2019-03-28T06:48:44.787Z,51.33
2019-03-28T06:51:15.783Z,51.31
2019-03-28T06:53:43.804Z,51.05
2019-03-28T06:58:57.377Z,50.70
2019-03-28T07:01:24.607Z,50.00
2019-03-28T07:06:40.568Z,50.43
2019-03-28T07:09:11.015Z,49.92
2019-03-28T07:11:42.827Z,49.07
2019-03-28T07:14:09.548Z,49.41
2019-03-28T07:16:40.133Z,49.59
2019-03-28T07:19:10.844Z,49.09
2019-03-28T07:21:41.556Z,49.06
2019-03-28T07:24:09.215Z,48.98
2019-03-28T07:26:37.739Z,48.90
2019-03-28T07:29:08.084Z,49.64
2019-03-28T07:31:38.899Z,49.69
2019-03-28T07:34:06.802Z,49.73
2019-03-28T07:36:33.855Z,49.07
2019-03-28T07:39:08.800Z,49.16
2019-03-28T07:41:52.525Z,48.00
2019-03-28T07:44:26.585Z,47.28
2019-03-28T07:46:53.525Z,47.35
2019-03-28T07:49:21.523Z,47.22
2019-03-28T07:51:52.815Z,47.62
2019-03-28T07:54:23.599Z,47.69
2019-03-28T07:56:52.656Z,47.19
2019-03-28T07:59:22.717Z,46.69
2019-03-28T08:01:55.272Z,46.56
2019-03-28T08:04:21.729Z,45.35
2019-03-28T08:06:50.188Z,45.83
2019-03-28T08:09:17.711Z,45.62
2019-03-28T08:11:47.995Z,44.96
2019-03-28T08:14:13.826Z,44.82
2019-03-28T08:16:40.463Z,44.87
2019-03-28T08:19:08.100Z,44.57
2019-03-28T08:21:38.641Z,43.79
2019-03-28T08:24:05.421Z,44.13
2019-03-28T08:26:32.006Z,43.67
2019-03-28T08:28:59.354Z,44.30
2019-03-28T08:34:24.081Z,43.37
2019-03-28T08:36:51.032Z,43.17
2019-03-28T08:39:17.781Z,43.23
2019-03-28T08:41:53.955Z,42.31
2019-03-28T08:44:22.665Z,42.22
2019-03-28T08:46:49.944Z,41.97
2019-03-28T08:49:17.390Z,41.20
2019-03-28T08:51:44.015Z,40.58
2019-03-28T08:54:10.895Z,40.70
2019-03-28T08:56:37.725Z,40.89
2019-03-28T08:59:04.655Z,40.07
2019-03-28T09:04:15.643Z,41.72
2019-03-28T09:06:42.615Z,41.40
2019-03-28T09:09:09.296Z,40.85
2019-03-28T09:11:36.230Z,41.60
2019-03-28T09:14:03.871Z,40.52
2019-03-28T09:21:59.280Z,39.90
2019-03-28T09:24:26.096Z,39.08
2019-03-28T09:26:52.860Z,38.76
2019-03-28T09:29:19.489Z,38.32
2019-03-28T09:31:46.155Z,39.73
2019-03-28T09:34:12.778Z,39.01
2019-03-28T09:36:39.530Z,37.39
2019-03-28T09:39:06.244Z,37.98
2019-03-28T09:41:33.204Z,37.46
2019-03-28T09:44:00.267Z,38.42
2019-03-28T09:46:27.096Z,37.65
2019-03-28T09:48:54.006Z,37.87
2019-03-28T09:51:20.839Z,38.05
2019-03-28T09:53:47.633Z,38.17
2019-03-28T09:56:14.308Z,37.05
2019-03-28T09:58:41.236Z,38.15
2019-03-28T10:01:07.909Z,36.92
2019-03-28T10:03:34.509Z,38.86
2019-03-28T10:06:01.273Z,36.48
2019-03-28T10:08:28.103Z,36.73
2019-03-28T10:10:54.785Z,36.64
2019-03-28T10:13:21.528Z,37.22
2019-03-28T10:15:48.198Z,37.15
2019-03-28T10:18:14.783Z,38.43
2019-03-28T10:20:41.661Z,36.71
2019-03-28T10:23:08.526Z,37.38
2019-03-28T10:25:35.121Z,37.03
2019-03-28T10:28:01.761Z,37.89
2019-03-28T10:30:29.014Z,36.70
2019-03-28T10:32:56.078Z,36.99
2019-03-28T10:35:22.680Z,36.38
2019-03-28T10:40:21.598Z,36.47
2019-03-28T10:42:48.379Z,35.73
2019-03-28T10:45:15.098Z,36.15
2019-03-28T10:47:41.740Z,35.69
2019-03-28T10:50:08.369Z,34.94
2019-03-28T10:52:35.086Z,35.79
2019-03-28T10:55:02.251Z,35.83
2019-03-28T10:57:30.362Z,35.40
2019-03-28T10:59:57.756Z,34.48
2019-03-28T11:02:24.739Z,34.27
2019-03-28T11:04:51.537Z,34.55
2019-03-28T11:07:18.604Z,34.00
2019-03-28T11:09:45.529Z,34.78
2019-03-28T11:12:12.096Z,34.71
2019-03-28T11:14:38.781Z,34.51
2019-03-28T11:17:05.437Z,34.93
2019-03-28T11:19:32.026Z,34.61
2019-03-28T11:21:58.824Z,34.63
2019-03-28T11:24:25.743Z,34.75
2019-03-28T11:26:52.470Z,34.34
2019-03-28T11:29:19.112Z,34.10
2019-03-28T11:31:50.556Z,35.20
2019-03-28T11:34:14.781Z,33.65
2019-03-28T11:36:41.553Z,34.04
2019-03-28T11:39:09.512Z,34.12
2019-03-28T11:41:36.144Z,33.99
2019-03-28T11:44:02.872Z,34.18
2019-03-28T11:46:30.514Z,33.94
2019-03-28T11:48:57.237Z,33.07
2019-03-28T11:51:24.707Z,33.61
2019-03-28T11:53:52.026Z,33.64
2019-03-28T11:56:18.939Z,33.56
2019-03-28T11:58:45.686Z,33.37
2019-03-28T12:01:13.627Z,32.59
2019-03-28T12:03:40.308Z,32.69
2019-03-28T12:06:06.900Z,33.35
2019-03-28T12:08:35.147Z,32.35
2019-03-28T12:11:01.961Z,31.74
2019-03-28T12:13:28.962Z,31.93
2019-03-28T12:15:55.607Z,31.53
2019-03-28T12:18:24.903Z,30.95
2019-03-28T12:23:36.214Z,32.69
2019-03-28T12:26:03.212Z,31.41
2019-03-28T12:28:29.927Z,30.98
2019-03-28T12:30:56.846Z,31.28
2019-03-28T12:33:23.529Z,30.07
2019-03-28T12:35:50.426Z,30.19
2019-03-28T12:40:50.797Z,30.64
2019-03-28T12:43:17.474Z,30.57
2019-03-28T12:45:44.318Z,30.20
2019-03-28T12:48:11.130Z,30.12
2019-03-28T12:50:37.852Z,30.42
2019-03-28T12:53:05.177Z,29.09
2019-03-28T12:55:32.092Z,28.84
2019-03-28T12:57:58.779Z,29.56
2019-03-28T13:00:25.485Z,28.10
2019-03-28T13:03:10.223Z,28.25
2019-03-28T13:05:37.293Z,28.63
2019-03-28T13:08:04.073Z,29.16
2019-03-28T13:10:30.964Z,28.92
2019-03-28T13:13:00.741Z,28.84
2019-03-28T13:15:27.681Z,28.47
2019-03-28T13:17:54.403Z,27.71
2019-03-28T13:20:22.365Z,26.67
2019-03-28T13:22:51.917Z,26.84
2019-03-28T13:25:17.513Z,27.97
2019-03-28T13:27:44.999Z,28.05
2019-03-28T13:30:11.631Z,28.71
2019-03-28T13:32:42.180Z,28.05
2019-03-28T13:35:06.924Z,29.51
2019-03-28T13:37:33.677Z,29.69
2019-03-28T13:40:00.781Z,29.45
2019-03-28T13:42:27.527Z,29.35
2019-03-28T13:44:54.458Z,29.71
2019-03-28T13:47:21.354Z,30.86
2019-03-28T13:49:48.195Z,30.37
2019-03-28T13:52:14.879Z,30.16
2019-03-28T13:54:41.480Z,30.43
2019-03-28T13:57:08.418Z,31.25
2019-03-28T13:59:35.525Z,31.74
2019-03-28T14:02:02.461Z,31.51
2019-03-28T14:04:34.773Z,30.26
2019-03-28T14:07:01.420Z,30.67
2019-03-28T14:09:28.184Z,30.25
2019-03-28T14:11:55.206Z,30.38
2019-03-28T14:14:21.938Z,30.40
2019-03-28T14:16:49.779Z,30.94
2019-03-28T14:19:17.161Z,30.61
2019-03-28T14:21:43.805Z,30.97
2019-03-28T14:24:11.799Z,31.55
2019-03-28T14:26:40.475Z,31.36
2019-03-28T14:31:51.537Z,30.63
2019-03-28T14:34:18.279Z,28.82
2019-03-28T14:36:45.136Z,29.22
2019-03-28T14:39:12.154Z,28.60
2019-03-28T14:41:38.886Z,28.99
2019-03-28T14:44:08.570Z,29.08
2019-03-28T14:46:38.513Z,30.28
2019-03-28T14:49:05.238Z,29.05
2019-03-28T14:51:32.131Z,30.12
2019-03-28T14:53:58.766Z,30.11
2019-03-28T14:56:25.913Z,30.16
2019-03-28T14:58:52.518Z,29.80
2019-03-28T15:01:19.425Z,29.21
2019-03-28T15:03:46.329Z,28.31
2019-03-28T15:06:13.257Z,28.27
2019-03-28T15:08:40.256Z,28.48
2019-03-28T15:11:06.926Z,28.45
2019-03-28T15:13:33.795Z,28.99
2019-03-28T15:16:00.633Z,28.85
2019-03-28T15:18:27.582Z,28.68
2019-03-28T15:20:54.280Z,28.68
2019-03-28T15:23:20.980Z,29.05
2019-03-28T15:25:47.888Z,29.10
2019-03-28T15:28:14.543Z,28.61
2019-03-28T15:30:41.195Z,28.41
2019-03-28T15:33:08.142Z,28.99
2019-03-28T15:35:35.045Z,29.57
2019-03-28T15:38:01.916Z,29.12
2019-03-28T15:40:28.592Z,29.46
2019-03-28T15:42:55.237Z,29.36
2019-03-28T15:45:22.163Z,29.50
2019-03-28T15:47:51.848Z,30.30
2019-03-28T15:50:17.157Z,29.64
2019-03-28T15:52:43.819Z,29.72
2019-03-28T15:55:10.675Z,30.01
2019-03-28T15:57:37.318Z,30.67
2019-03-28T16:00:03.937Z,30.91
2019-03-28T16:02:30.614Z,29.77
2019-03-28T16:04:57.620Z,29.51
2019-03-28T16:07:24.724Z,29.67
2019-03-28T16:09:51.732Z,29.77
2019-03-28T16:12:18.424Z,29.48
2019-03-28T16:14:45.404Z,30.11
2019-03-28T16:17:12.150Z,30.27
2019-03-28T16:19:40.232Z,30.43
2019-03-28T16:22:06.910Z,30.51
2019-03-28T16:24:33.664Z,30.52
2019-03-28T16:27:00.399Z,30.77
2019-03-28T16:29:27.135Z,30.83
2019-03-28T16:31:54.080Z,31.04
2019-03-28T16:34:20.962Z,30.85
2019-03-28T16:36:48.058Z,30.55
2019-03-28T16:39:14.966Z,31.06
2019-03-28T16:41:41.615Z,31.22
2019-03-28T16:44:08.268Z,31.00
2019-03-28T16:46:35.086Z,31.17
2019-03-28T16:49:02.174Z,31.56
2019-03-28T16:51:29.862Z,32.24
2019-03-28T16:53:56.491Z,32.49
2019-03-28T16:56:23.141Z,32.93
2019-03-28T16:58:49.817Z,33.14
2019-03-28T17:01:16.525Z,33.22
2019-03-28T17:03:43.433Z,33.52
2019-03-28T17:06:10.879Z,33.61
2019-03-28T17:08:37.782Z,33.50
2019-03-28T17:11:04.385Z,33.50
2019-03-28T17:13:32.304Z,34.02
2019-03-28T17:15:59.063Z,34.24
2019-03-28T17:18:25.692Z,34.52
2019-03-28T17:20:52.709Z,34.28
2019-03-28T17:23:19.381Z,34.75
2019-03-28T17:25:45.972Z,35.55
2019-03-28T17:28:12.865Z,35.30
2019-03-28T17:30:39.769Z,34.98
2019-03-28T17:33:06.765Z,34.77
2019-03-28T17:35:33.725Z,34.56
2019-03-28T17:38:00.407Z,34.95
2019-03-28T17:40:27.061Z,34.82
2019-03-28T17:42:53.743Z,35.66
2019-03-28T17:45:20.622Z,36.20
2019-03-28T17:47:47.347Z,36.26
2019-03-28T17:50:14.523Z,36.59
2019-03-28T17:52:42.224Z,36.47
2019-03-28T17:55:09.856Z,36.17
2019-03-28T17:57:39.607Z,36.28
2019-03-28T18:03:08.131Z,36.02
2019-03-28T18:05:24.563Z,36.38
2019-03-28T18:07:53.126Z,36.35
2019-03-28T18:10:23.474Z,36.51
2019-03-28T18:12:50.370Z,36.50
2019-03-28T18:15:18.068Z,37.10
2019-03-28T18:17:45.039Z,37.10
2019-03-28T18:20:12.666Z,37.21
2019-03-28T18:22:40.576Z,37.10
2019-03-28T18:25:09.277Z,37.12
2019-03-28T18:27:36.907Z,37.46
2019-03-28T18:30:06.290Z,37.22
2019-03-28T18:32:39.152Z,37.43
2019-03-28T18:35:05.604Z,38.11
2019-03-28T18:37:38.280Z,38.17
2019-03-28T18:40:05.484Z,37.87
2019-03-28T18:42:33.260Z,38.11
2019-03-28T18:45:04.186Z,37.86
2019-03-28T18:47:31.920Z,37.79
2019-03-28T18:49:58.839Z,37.80
2019-03-28T18:52:25.552Z,38.40
2019-03-28T18:54:52.717Z,38.61
2019-03-28T18:57:20.029Z,38.79
2019-03-28T18:59:48.437Z,38.81
2019-03-28T19:02:16.871Z,38.35
2019-03-28T19:04:48.155Z,38.49
2019-03-28T19:07:18.913Z,38.54
2019-03-28T19:09:54.824Z,38.39
2019-03-28T19:12:17.647Z,38.79
2019-03-28T19:14:52.562Z,39.59
2019-03-28T19:17:22.771Z,39.70
2019-03-28T19:19:51.438Z,39.86
2019-03-28T19:22:23.293Z,39.35
2019-03-28T19:24:53.548Z,39.59
2019-03-28T19:27:21.463Z,40.09
2019-03-28T19:29:52.332Z,39.95
2019-03-28T19:32:38.098Z,40.40
2019-03-28T19:35:05.484Z,40.49
2019-03-28T19:37:39.820Z,40.65
2019-03-28T19:40:06.941Z,40.26
2019-03-28T19:42:37.728Z,40.34
2019-03-28T19:45:06.136Z,40.42
2019-03-28T19:47:34.437Z,40.37
2019-03-28T19:50:07.215Z,40.17
2019-03-28T19:52:37.163Z,40.62
2019-03-28T19:55:08.120Z,41.03
2019-03-28T19:57:35.801Z,41.01
2019-03-28T20:00:05.003Z,40.81
2019-03-28T20:02:36.122Z,40.93
2019-03-28T20:05:04.996Z,40.94
2019-03-28T20:07:35.240Z,41.30
2019-03-28T20:10:16.112Z,41.37
2019-03-28T20:12:40.667Z,41.27
2019-03-28T20:15:08.222Z,41.86
2019-03-28T20:17:39.585Z,41.96
2019-03-28T20:22:33.196Z,42.32
2019-03-28T20:25:00.942Z,42.30
2019-03-28T20:27:28.309Z,42.11
2019-03-28T20:29:55.798Z,42.21
2019-03-28T20:32:25.171Z,42.42
2019-03-28T20:40:27.471Z,41.99
2019-03-28T20:42:55.327Z,42.41
2019-03-28T20:48:13.654Z,43.01
2019-03-28T20:50:47.605Z,43.12
2019-03-28T20:53:16.562Z,43.06
2019-03-28T20:55:43.199Z,42.89
2019-03-28T20:58:16.113Z,42.98
2019-03-28T21:00:45.430Z,43.00
2019-03-28T21:03:15.928Z,43.31
2019-03-28T21:05:42.558Z,44.17
2019-03-28T21:08:09.448Z,44.29
2019-03-28T21:10:36.904Z,44.55
2019-03-28T21:13:04.521Z,44.25
2019-03-28T21:15:34.862Z,43.84
2019-03-28T21:18:01.997Z,44.05
2019-03-28T21:20:29.901Z,44.14
2019-03-28T21:22:57.937Z,44.21
2019-03-28T21:25:25.574Z,44.34
2019-03-28T21:27:52.191Z,43.88
2019-03-28T21:30:20.444Z,44.18
2019-03-28T21:32:55.200Z,44.18
2019-03-28T21:35:20.409Z,44.32
2019-03-28T21:37:47.078Z,44.06
2019-03-28T21:40:13.846Z,43.93
2019-03-28T21:42:40.578Z,43.93
2019-03-28T21:45:08.254Z,44.07
2019-03-28T21:47:36.785Z,43.90
2019-03-28T21:50:03.391Z,44.44
2019-03-28T21:52:29.978Z,43.51
2019-03-28T21:54:57.758Z,43.64
2019-03-28T21:57:25.569Z,44.34
2019-03-28T21:59:53.772Z,44.50
2019-03-28T22:02:20.731Z,44.60
2019-03-28T22:04:48.403Z,44.54
2019-03-28T22:07:15.448Z,44.28
2019-03-28T22:09:42.260Z,44.29
2019-03-28T22:12:10.583Z,44.00
2019-03-28T22:14:37.277Z,45.06
2019-03-28T22:17:03.931Z,45.25
2019-03-28T22:19:30.802Z,45.28
2019-03-28T22:24:43.143Z,44.97
2019-03-28T22:27:09.774Z,45.24
2019-03-28T22:29:36.710Z,45.28
2019-03-28T22:32:04.095Z,45.14
2019-03-28T22:34:30.845Z,45.22
2019-03-28T22:36:59.970Z,45.05
2019-03-28T22:39:26.021Z,45.57
2019-03-28T22:41:52.961Z,45.82
2019-03-28T22:44:19.583Z,45.61
2019-03-28T22:46:46.468Z,45.25
2019-03-28T22:49:13.077Z,45.26
2019-03-28T22:51:39.715Z,45.14
2019-03-28T22:54:06.623Z,45.81
2019-03-28T22:56:33.245Z,46.30
2019-03-28T22:59:00.854Z,46.32
2019-03-28T23:01:27.502Z,46.27
2019-03-28T23:03:54.211Z,46.12
2019-03-28T23:06:21.084Z,46.27
2019-03-28T23:08:47.711Z,46.51
2019-03-28T23:11:14.503Z,46.69
2019-03-28T23:13:41.135Z,46.33
2019-03-28T23:16:07.743Z,45.78
2019-03-28T23:18:34.550Z,45.98
2019-03-28T23:21:01.193Z,46.23
2019-03-28T23:23:27.786Z,46.02
2019-03-28T23:25:54.488Z,46.21
2019-03-28T23:28:21.117Z,46.90
2019-03-28T23:30:48.018Z,47.38
2019-03-28T23:33:14.830Z,46.78
2019-03-28T23:35:41.617Z,46.61
2019-03-28T23:38:08.313Z,46.64
2019-03-28T23:40:34.997Z,46.39
2019-03-28T23:43:01.873Z,46.45
2019-03-28T23:45:28.488Z,46.28
2019-03-28T23:47:55.888Z,46.02
2019-03-28T23:50:22.577Z,45.43
2019-03-28T23:52:49.431Z,45.70
2019-03-28T23:55:16.093Z,45.64
2019-03-28T23:57:42.703Z,46.06
